ADDS METAR Data INFO
IDs: Format: Raw Decoded Include TAF

Data at: 0247 UTC 21 Oct 2017

KBTR 210153Z 10009KT 10SM CLR 23/19 A3006 RMK AO2 SLP177 T02280194
KBTR 210053Z 10009KT 10SM FEW049 23/20 A3005 RMK AO2 SLP175 T02330200
KBTR 202353Z 11008KT 10SM FEW026 23/20 A3005 RMK AO2 SLP175 T02330200 10272 20233 55000
KBTR 202253Z 10009KT 10SM SCT055 25/19 A3004 RMK AO2 SLP171 T02500194
KBTR 202153Z 11009KT 10SM SCT024 26/19 A3004 RMK AO2 SLP170 T02610194
KBTR 202053Z 13009KT 10SM SCT024 SCT034 27/19 A3005 RMK AO2 SLP175 T02670194 56014
KBTR 201953Z COR 12012KT 10SM SCT030 27/19 A3005 RMK AO2 SLP175 T02670189
KBTR 201853Z 10010KT 10SM SCT029 27/19 A3006 RMK AO2 SLP178 T02670194
KBTR 201753Z 07011KT 10SM CLR 26/18 A3009 RMK AO2 SLP189 T02560183 10256 20161 58027
KBTR 201653Z 07009KT 10SM CLR 25/18 A3014 RMK AO2 SLP205 T02500178
KBTR 201553Z 08006KT 10SM CLR 23/17 A3016 RMK AO2 SLP212 T02280167
KBTR 201453Z 07006KT 10SM CLR 19/16 A3017 RMK AO2 SLP216 T01940161 53009
KBTR 201353Z 07006KT 10SM CLR 18/16 A3016 RMK AO2 SLP212 T01780156
KBTR 201253Z 06005KT 10SM CLR 17/15 A3015 RMK AO2 SLP208 T01670150
KBTR 201153Z 07005KT 10SM CLR 16/15 A3014 RMK AO2 SLP207 T01610150 10189 20161 53004
KBTR 201053Z 08006KT 10SM CLR 17/16 A3014 RMK AO2 SLP206 T01670156
KBTR 200953Z AUTO 06006KT 10SM CLR 17/16 A3013 RMK AO2 SLP203 T01720161
KBTR 200853Z AUTO 07004KT 10SM CLR 18/17 A3013 RMK AO2 SLP203 T01780167 56008
KBTR 200753Z AUTO 07007KT 10SM CLR 18/18 A3014 RMK AO2 SLP204 T01830178
KBTR 200653Z AUTO 06005KT 9SM CLR 18/17 A3014 RMK AO2 SLP207 T01830172
KBTR 200553Z AUTO 08005KT 9SM CLR 18/18 A3016 RMK AO2 SLP211 T01830178 10233 20183 402890128 50001
KBTR 200453Z 07003KT 10SM CLR 19/18 A3016 RMK AO2 SLP212 T01890178
KBTR 200353Z 08004KT 10SM CLR 19/18 A3017 RMK AO2 SLP214 T01940178
KBTR 200253Z 07004KT 10SM CLR 19/18 A3015 RMK AO2 SLP210 T01940178 51012
KBTR 200153Z 11003KT 10SM CLR 21/18 A3014 RMK AO2 SLP205 T02060178
KBTR 200053Z 10004KT 10SM CLR 22/17 A3014 RMK AO2 SLP204 T02170172
KBTR 192353Z 10005KT 10SM CLR 23/16 A3012 RMK AO2 SLP198 T02330161 10289 20233 53002
KBTR 192253Z 11005KT 10SM SCT046 26/17 A3011 RMK AO2 SLP196 T02610172
KBTR 192153Z 10006KT 10SM FEW060 27/16 A3011 RMK AO2 SLP196 T02720161
KBTR 192053Z 05007KT 10SM SCT046 28/16 A3011 RMK AO2 SLP197 T02830156 56021
KBTR 191953Z 06007KT 10SM SCT045 28/16 A3012 RMK AO2 SLP200 T02780161
KBTR 191853Z 13004KT 10SM SCT039 27/17 A3014 RMK AO2 SLP206 T02720167
KBTR 191753Z 04006KT 10SM SCT031 27/17 A3018 RMK AO2 SLP218 T02720167 10272 20128 58012
KBTR 191653Z 03010KT 10SM CLR 26/16 A3020 RMK AO2 SLP225 T02560156
KBTR 191553Z 05008KT 10SM CLR 23/15 A3021 RMK AO2 SLP230 T02330150
KBTR 191453Z 07007KT 10SM CLR 21/14 A3021 RMK AO2 SLP229 T02060144 52016